createdAt,value
2023-04-02T04:00:43.242Z,1001.19
2023-04-02T04:01:44.695Z,1001.19
2023-04-02T04:02:44.296Z,1001.18
2023-04-02T04:03:44.023Z,1001.24
2023-04-02T04:04:44.701Z,1001.27
2023-04-02T04:05:43.994Z,1001.29
2023-04-02T04:06:44.494Z,1001.31
2023-04-02T04:07:43.966Z,1001.32
2023-04-02T04:08:43.952Z,1001.29
2023-04-02T04:09:43.941Z,1001.29
2023-04-02T04:10:44.051Z,1001.39
2023-04-02T04:11:43.971Z,1001.40
2023-04-02T04:12:43.924Z,1001.40
2023-04-02T04:13:43.959Z,1001.44
2023-04-02T04:14:45.252Z,1001.49
2023-04-02T04:15:43.910Z,1001.43
2023-04-02T04:16:43.983Z,1001.46
2023-04-02T04:17:43.930Z,1001.44
2023-04-02T04:18:43.885Z,1001.50
2023-04-02T04:19:43.829Z,1001.56
2023-04-02T04:20:43.839Z,1001.50
2023-04-02T04:21:43.935Z,1001.58
2023-04-02T04:22:43.839Z,1001.51
2023-04-02T04:23:43.792Z,1001.64
2023-04-02T04:24:43.793Z,1001.65
2023-04-02T04:25:43.835Z,1001.68
2023-04-02T04:26:43.877Z,1001.74
2023-04-02T04:27:44.810Z,1001.72
2023-04-02T04:28:43.780Z,1001.78
2023-04-02T04:29:43.728Z,1001.79
2023-04-02T04:30:43.736Z,1001.82
2023-04-02T04:31:43.815Z,1001.82
2023-04-02T04:32:43.719Z,1001.84
2023-04-02T04:33:43.715Z,1001.85
2023-04-02T04:34:43.682Z,1001.89
2023-04-02T04:35:43.742Z,1001.89
2023-04-02T04:36:43.704Z,1001.92
2023-04-02T04:37:43.645Z,1001.95
2023-04-02T04:38:44.919Z,1002.00
2023-04-02T04:39:43.712Z,1002.04
2023-04-02T04:40:43.626Z,1002.05
2023-04-02T04:41:43.725Z,1002.09
2023-04-02T04:42:43.625Z,1002.12
2023-04-02T04:43:43.589Z,1002.16
2023-04-02T04:44:43.628Z,1002.21
2023-04-02T04:45:43.626Z,1002.22
2023-04-02T04:46:43.645Z,1002.25
2023-04-02T04:47:43.686Z,1002.27
2023-04-02T04:48:43.521Z,1002.30
2023-04-02T04:49:43.569Z,1002.33
2023-04-02T04:50:43.489Z,1002.37
2023-04-02T04:51:43.552Z,1002.39
2023-04-02T04:52:43.660Z,1002.41
2023-04-02T04:53:43.560Z,1002.43
2023-04-02T04:54:43.535Z,1002.46
2023-04-02T04:55:43.488Z,1002.49
2023-04-02T04:56:43.428Z,1002.50
2023-04-02T04:57:43.445Z,1002.52
2023-04-02T04:58:43.408Z,1002.53
2023-04-02T04:59:43.393Z,1002.51
2023-04-02T05:00:43.387Z,1002.58
2023-04-02T05:01:43.393Z,1002.62
2023-04-02T05:02:43.408Z,1002.61
2023-04-02T05:03:43.353Z,1002.65
2023-04-02T05:04:43.390Z,1002.64
2023-04-02T05:05:43.325Z,1002.71
2023-04-02T05:06:43.351Z,1002.72
2023-04-02T05:07:43.326Z,1002.74
2023-04-02T05:08:43.318Z,1002.81
2023-04-02T05:09:43.286Z,1002.77
2023-04-02T05:10:43.283Z,1002.80
2023-04-02T05:11:43.331Z,1002.82
2023-04-02T05:12:43.279Z,1002.84
2023-04-02T05:13:43.239Z,1002.87
2023-04-02T05:14:43.232Z,1002.88
2023-04-02T05:15:43.266Z,1002.89
2023-04-02T05:16:43.231Z,1002.92
2023-04-02T05:17:43.236Z,1002.86
2023-04-02T05:18:43.200Z,1002.89
2023-04-02T05:19:43.175Z,1002.97
2023-04-02T05:20:43.170Z,1003.02
2023-04-02T05:21:43.168Z,1002.99
2023-04-02T05:22:43.186Z,1003.04
2023-04-02T05:23:43.140Z,1003.05
2023-04-02T05:24:43.131Z,1003.09
2023-04-02T05:25:43.120Z,1003.03
2023-04-02T05:26:43.120Z,1003.12
2023-04-02T05:27:43.112Z,1003.08
2023-04-02T05:28:43.102Z,1003.12
2023-04-02T05:29:43.078Z,1003.17
2023-04-02T05:30:43.071Z,1003.12
2023-04-02T05:31:43.218Z,1003.22
2023-04-02T05:32:43.124Z,1003.26
2023-04-02T05:33:43.046Z,1003.26
2023-04-02T05:34:43.042Z,1003.30
2023-04-02T05:35:43.095Z,1003.33
2023-04-02T05:36:43.039Z,1003.31
2023-04-02T05:37:43.005Z,1003.38
2023-04-02T05:38:42.983Z,1003.39
2023-04-02T05:39:42.973Z,1003.35
2023-04-02T05:40:42.954Z,1003.45
2023-04-02T05:41:42.953Z,1003.47
2023-04-02T05:42:42.997Z,1003.53
2023-04-02T05:43:42.921Z,1003.49
2023-04-02T05:44:42.914Z,1003.55
2023-04-02T05:45:42.903Z,1003.59
2023-04-02T05:46:42.955Z,1003.62
2023-04-02T05:47:42.939Z,1003.58
2023-04-02T05:48:42.871Z,1003.64
2023-04-02T05:49:42.858Z,1003.67
2023-04-02T05:50:42.855Z,1003.67
2023-04-02T05:51:42.883Z,1003.73
2023-04-02T05:52:42.829Z,1003.70
2023-04-02T05:53:42.846Z,1003.78
2023-04-02T05:54:42.815Z,1003.82
2023-04-02T05:55:42.800Z,1003.83
2023-04-02T05:56:42.801Z,1003.90
2023-04-02T05:57:48.325Z,1003.92
2023-04-02T05:58:45.486Z,1003.94
2023-04-02T05:59:42.761Z,1003.96
2023-04-02T06:00:42.767Z,1004.01
2023-04-02T06:01:42.768Z,1004.02
2023-04-02T06:02:42.735Z,1004.06
2023-04-02T06:03:42.823Z,1004.10
2023-04-02T06:04:42.716Z,1004.11
2023-04-02T06:05:42.703Z,1004.11
2023-04-02T06:06:42.711Z,1004.14
2023-04-02T06:07:42.680Z,1004.16
2023-04-02T06:08:42.667Z,1004.20
2023-04-02T06:09:42.659Z,1004.14
2023-04-02T06:10:42.645Z,1004.18
2023-04-02T06:11:42.660Z,1004.18
2023-04-02T06:12:42.644Z,1004.20
2023-04-02T06:13:42.630Z,1004.23
2023-04-02T06:14:42.614Z,1004.24
2023-04-02T06:15:42.599Z,1004.25
2023-04-02T06:16:42.636Z,1004.27
2023-04-02T06:17:42.596Z,1004.27
2023-04-02T06:18:42.585Z,1004.29
2023-04-02T06:19:42.552Z,1004.31
2023-04-02T06:20:42.550Z,1004.33
2023-04-02T06:21:42.536Z,1004.34
2023-04-02T06:22:42.528Z,1004.37
2023-04-02T06:23:42.559Z,1004.41
2023-04-02T06:24:42.505Z,1004.43
2023-04-02T06:25:42.487Z,1004.46
2023-04-02T06:26:42.487Z,1004.47
2023-04-02T06:27:42.464Z,1004.51
2023-04-02T06:28:42.480Z,1004.53
2023-04-02T06:29:42.461Z,1004.53
2023-04-02T06:30:42.485Z,1004.59
2023-04-02T06:31:42.437Z,1004.60
2023-04-02T06:32:42.495Z,1004.62
2023-04-02T06:33:42.462Z,1004.61
2023-04-02T06:34:42.471Z,1004.67
2023-04-02T06:35:42.431Z,1004.69
2023-04-02T06:36:42.465Z,1004.74
2023-04-02T06:37:42.378Z,1004.76
2023-04-02T06:38:42.394Z,1004.80
2023-04-02T06:39:42.349Z,1004.80
2023-04-02T06:40:42.364Z,1004.84
2023-04-02T06:41:42.332Z,1004.85
2023-04-02T06:42:42.323Z,1004.90
2023-04-02T06:43:42.354Z,1004.92
2023-04-02T06:44:42.317Z,1004.89
2023-04-02T06:45:42.352Z,1004.94
2023-04-02T06:46:42.292Z,1004.95
2023-04-02T06:47:42.271Z,1004.96
2023-04-02T06:48:42.270Z,1005.03
2023-04-02T06:49:42.251Z,1005.03
2023-04-02T06:50:42.236Z,1005.06
2023-04-02T06:51:42.235Z,1005.06
2023-04-02T06:52:42.226Z,1005.05
2023-04-02T06:53:42.228Z,1005.10
2023-04-02T06:54:42.318Z,1005.11
2023-04-02T06:55:42.184Z,1005.14
2023-04-02T06:56:42.189Z,1005.17
2023-04-02T06:57:43.061Z,1005.17
2023-04-02T06:58:42.162Z,1005.24
2023-04-02T06:59:42.155Z,1005.26
2023-04-02T07:00:42.123Z,1005.20
2023-04-02T07:01:42.225Z,1005.29
2023-04-02T07:02:42.120Z,1005.26
2023-04-02T07:03:42.110Z,1005.29
2023-04-02T07:04:42.234Z,1005.33
2023-04-02T07:05:43.053Z,1005.36
2023-04-02T07:06:42.065Z,1005.37
2023-04-02T07:07:42.044Z,1005.42
2023-04-02T07:08:42.062Z,1005.46
2023-04-02T07:09:42.013Z,1005.43
2023-04-02T07:10:42.006Z,1005.45
2023-04-02T07:11:42.005Z,1005.51
2023-04-02T07:12:41.987Z,1005.52
2023-04-02T07:13:41.999Z,1005.53
2023-04-02T07:14:41.961Z,1005.53
2023-04-02T07:15:41.957Z,1005.57
2023-04-02T07:16:41.952Z,1005.59
2023-04-02T07:17:42.000Z,1005.59
2023-04-02T07:18:41.916Z,1005.61
2023-04-02T07:19:41.920Z,1005.66
2023-04-02T07:20:41.892Z,1005.68
2023-04-02T07:21:41.897Z,1005.71
2023-04-02T07:22:41.871Z,1005.72
2023-04-02T07:23:41.929Z,1005.71
2023-04-02T07:24:41.846Z,1005.76
2023-04-02T07:25:41.842Z,1005.76
2023-04-02T07:26:41.834Z,1005.79
2023-04-02T07:27:41.817Z,1005.82
2023-04-02T07:28:41.836Z,1005.81
2023-04-02T07:29:41.795Z,1005.84
2023-04-02T07:30:42.165Z,1005.90
2023-04-02T07:31:41.998Z,1005.85
2023-04-02T07:32:41.830Z,1005.91
2023-04-02T07:33:42.209Z,1005.94
2023-04-02T07:34:41.805Z,1006.01
2023-04-02T07:35:41.767Z,1006.06
2023-04-02T07:36:41.799Z,1006.04
2023-04-02T07:37:41.766Z,1006.07
2023-04-02T07:38:41.732Z,1006.11
2023-04-02T07:39:41.995Z,1006.13
2023-04-02T07:40:41.714Z,1006.13
2023-04-02T07:41:41.710Z,1006.15
2023-04-02T07:42:41.733Z,1006.18
2023-04-02T07:43:41.715Z,1006.20
2023-04-02T07:44:41.721Z,1006.21
2023-04-02T07:45:41.643Z,1006.22
2023-04-02T07:46:41.875Z,1006.25
2023-04-02T07:47:41.675Z,1006.27
2023-04-02T07:48:41.616Z,1006.24
2023-04-02T07:49:42.202Z,1006.24
2023-04-02T07:50:41.557Z,1006.29
2023-04-02T07:51:41.561Z,1006.30
2023-04-02T07:52:41.569Z,1006.31
2023-04-02T07:53:41.602Z,1006.32
2023-04-02T07:54:42.239Z,1006.35
2023-04-02T07:55:41.708Z,1006.40
2023-04-02T07:56:41.550Z,1006.35
2023-04-02T07:57:42.038Z,1006.38
2023-04-02T07:58:41.588Z,1006.42
2023-04-02T07:59:41.676Z,1006.43
2023-04-02T08:00:41.574Z,1006.49
2023-04-02T08:01:41.979Z,1006.51
2023-04-02T08:02:41.583Z,1006.49
2023-04-02T08:03:41.673Z,1006.56
2023-04-02T08:04:41.432Z,1006.59
2023-04-02T08:05:41.545Z,1006.57
2023-04-02T08:06:41.432Z,1006.63
2023-04-02T08:07:41.417Z,1006.61
2023-04-02T08:08:41.515Z,1006.65
2023-04-02T08:09:41.477Z,1006.63
2023-04-02T08:10:41.361Z,1006.68
2023-04-02T08:11:41.416Z,1006.70
2023-04-02T08:12:41.404Z,1006.70
2023-04-02T08:13:41.304Z,1006.75
2023-04-02T08:14:41.304Z,1006.75
2023-04-02T08:15:41.281Z,1006.77
2023-04-02T08:16:41.320Z,1006.75
2023-04-02T08:17:41.483Z,1006.81
2023-04-02T08:18:42.238Z,1006.82
2023-04-02T08:19:54.172Z,1006.83
2023-04-02T08:20:41.616Z,1006.85
2023-04-02T08:21:41.489Z,1006.89
2023-04-02T08:22:41.461Z,1006.87
2023-04-02T08:23:42.099Z,1006.89
2023-04-02T08:24:41.717Z,1006.93
2023-04-02T08:25:44.454Z,1006.94
2023-04-02T08:26:43.887Z,1006.96
2023-04-02T08:27:41.535Z,1006.96
2023-04-02T08:28:41.686Z,1006.96
2023-04-02T08:29:41.288Z,1007.04
2023-04-02T08:30:43.336Z,1007.04
2023-04-02T08:31:42.125Z,1007.06
2023-04-02T08:32:41.841Z,1007.11
2023-04-02T08:33:41.590Z,1007.10
2023-04-02T08:34:41.486Z,1007.15
2023-04-02T08:35:41.281Z,1007.16
2023-04-02T08:36:42.999Z,1007.15
2023-04-02T08:37:42.103Z,1007.19
2023-04-02T08:38:44.019Z,1007.21
2023-04-02T08:39:41.486Z,1007.23
2023-04-02T08:40:42.610Z,1007.28
2023-04-02T08:41:40.616Z,1007.29
2023-04-02T08:42:44.358Z,1007.28
2023-04-02T08:43:44.264Z,1007.28
2023-04-02T08:44:40.882Z,1007.35
2023-04-02T08:45:46.410Z,1007.35
2023-04-02T08:46:53.388Z,1007.38
2023-04-02T08:47:43.997Z,1007.39
2023-04-02T08:48:42.657Z,1007.39
2023-04-02T08:49:41.961Z,1007.47
2023-04-02T08:50:41.504Z,1007.44
2023-04-02T08:51:41.710Z,1007.48
2023-04-02T08:52:42.272Z,1007.52
2023-04-02T08:53:41.355Z,1007.47
2023-04-02T08:54:42.511Z,1007.50
2023-04-02T08:55:41.654Z,1007.54
2023-04-02T08:56:40.026Z,1007.56
2023-04-02T08:57:42.790Z,1007.57
2023-04-02T08:58:41.265Z,1007.56
2023-04-02T08:59:43.734Z,1007.60
2023-04-02T09:00:39.907Z,1007.61
2023-04-02T09:01:41.629Z,1007.64
2023-04-02T09:02:41.079Z,1007.57
2023-04-02T09:03:41.423Z,1007.70
2023-04-02T09:04:42.689Z,1007.67
2023-04-02T09:05:41.344Z,1007.69
2023-04-02T09:06:41.337Z,1007.69
2023-04-02T09:07:41.497Z,1007.68
2023-04-02T09:08:40.429Z,1007.73
2023-04-02T09:09:40.287Z,1007.73
2023-04-02T09:10:43.037Z,1007.72
2023-04-02T09:11:41.239Z,1007.72
2023-04-02T09:12:50.646Z,1007.76
2023-04-02T09:13:40.740Z,1007.77
2023-04-02T09:14:40.972Z,1007.79
2023-04-02T09:15:41.031Z,1007.79
2023-04-02T09:16:42.402Z,1007.82
2023-04-02T09:17:52.911Z,1007.84
2023-04-02T09:18:42.092Z,1007.87
2023-04-02T09:19:41.382Z,1007.90
2023-04-02T09:20:44.819Z,1007.86
2023-04-02T09:21:43.887Z,1007.88
2023-04-02T09:22:40.469Z,1007.94
2023-04-02T09:23:41.927Z,1007.94
2023-04-02T09:24:39.994Z,1007.95
2023-04-02T09:25:42.166Z,1008.01
2023-04-02T09:26:43.079Z,1008.05
2023-04-02T09:27:48.260Z,1008.06
2023-04-02T09:28:40.529Z,1008.08
2023-04-02T09:29:40.574Z,1008.09
2023-04-02T09:30:40.502Z,1008.13
2023-04-02T09:31:40.529Z,1008.12
2023-04-02T09:32:40.609Z,1008.16
2023-04-02T09:33:40.468Z,1008.16
2023-04-02T09:34:40.465Z,1008.16
2023-04-02T09:35:40.630Z,1008.21
2023-04-02T09:36:40.463Z,1008.21
2023-04-02T09:37:40.422Z,1008.22
2023-04-02T09:38:40.415Z,1008.24
2023-04-02T09:39:40.419Z,1008.22
2023-04-02T09:40:40.421Z,1008.25
2023-04-02T09:41:40.386Z,1008.24
2023-04-02T09:42:40.375Z,1008.25
2023-04-02T09:43:40.362Z,1008.30
2023-04-02T09:44:40.342Z,1008.28
2023-04-02T09:45:40.384Z,1008.32
2023-04-02T09:46:40.386Z,1008.28
2023-04-02T09:47:42.278Z,1008.33
2023-04-02T09:48:40.300Z,1008.36
2023-04-02T09:49:40.312Z,1008.40
2023-04-02T09:50:40.296Z,1008.37
2023-04-02T09:51:40.276Z,1008.41
2023-04-02T09:52:40.279Z,1008.38
2023-04-02T09:53:42.281Z,1008.43
2023-04-02T09:54:40.235Z,1008.47
2023-04-02T09:55:40.246Z,1008.48
2023-04-02T09:56:40.247Z,1008.48
2023-04-02T09:57:40.249Z,1008.45
2023-04-02T09:58:40.205Z,1008.54
2023-04-02T09:59:40.188Z,1008.56
2023-04-02T10:00:42.101Z,1008.55
2023-04-02T10:01:40.235Z,1008.61
2023-04-02T10:02:40.207Z,1008.61
2023-04-02T10:03:40.152Z,1008.64
2023-04-02T10:04:40.216Z,1008.63
2023-04-02T10:05:41.382Z,1008.65
2023-04-02T10:06:40.110Z,1008.65
2023-04-02T10:07:40.138Z,1008.65
2023-04-02T10:08:40.086Z,1008.71
2023-04-02T10:09:40.087Z,1008.70
2023-04-02T10:10:40.112Z,1008.70
2023-04-02T10:11:46.667Z,1008.74
2023-04-02T10:12:40.137Z,1008.77
2023-04-02T10:13:40.044Z,1008.80
2023-04-02T10:14:40.046Z,1008.77
2023-04-02T10:15:40.057Z,1008.79
2023-04-02T10:16:40.062Z,1008.82
2023-04-02T10:17:40.030Z,1008.84
2023-04-02T10:18:40.007Z,1008.85
2023-04-02T10:19:39.984Z,1008.87
2023-04-02T10:20:50.513Z,1008.86
2023-04-02T10:21:39.963Z,1008.92
2023-04-02T10:22:39.974Z,1008.95
2023-04-02T10:23:39.932Z,1008.97
2023-04-02T10:24:39.937Z,1009.01
2023-04-02T10:25:39.925Z,1009.02
2023-04-02T10:26:39.897Z,1009.02
2023-04-02T10:27:39.916Z,1009.07
2023-04-02T10:28:39.888Z,1009.07
2023-04-02T10:29:39.873Z,1009.08
2023-04-02T10:30:39.918Z,1009.08
2023-04-02T10:31:39.854Z,1009.14
2023-04-02T10:32:39.901Z,1009.15
2023-04-02T10:33:39.836Z,1009.19
2023-04-02T10:34:41.166Z,1009.13
2023-04-02T10:35:39.829Z,1009.15
2023-04-02T10:36:39.798Z,1009.18
2023-04-02T10:37:39.822Z,1009.17
2023-04-02T10:38:39.793Z,1009.16
2023-04-02T10:39:39.768Z,1009.20
2023-04-02T10:40:39.763Z,1009.21
2023-04-02T10:41:39.748Z,1009.25
2023-04-02T10:42:39.764Z,1009.25
2023-04-02T10:43:39.733Z,1009.25
2023-04-02T10:44:39.705Z,1009.21
2023-04-02T10:45:39.707Z,1009.30
2023-04-02T10:46:39.800Z,1009.26
2023-04-02T10:47:39.742Z,1009.30
2023-04-02T10:48:39.665Z,1009.32
2023-04-02T10:49:39.716Z,1009.34
2023-04-02T10:50:39.655Z,1009.33
2023-04-02T10:51:39.643Z,1009.37
2023-04-02T10:52:39.655Z,1009.36
2023-04-02T10:53:39.631Z,1009.37
2023-04-02T10:54:39.607Z,1009.38
2023-04-02T10:55:39.602Z,1009.40
2023-04-02T10:56:49.895Z,1009.42
2023-04-02T10:57:39.736Z,1009.42
2023-04-02T10:58:39.564Z,1009.43
2023-04-02T10:59:39.569Z,1009.46
2023-04-02T11:00:39.561Z,1009.45
2023-04-02T11:01:39.574Z,1009.46
2023-04-02T11:02:39.614Z,1009.43
2023-04-02T11:03:39.699Z,1009.46
2023-04-02T11:04:39.506Z,1009.49
2023-04-02T11:05:39.492Z,1009.45
2023-04-02T11:06:39.481Z,1009.49
2023-04-02T11:07:39.472Z,1009.49
2023-04-02T11:08:39.448Z,1009.49
2023-04-02T11:09:39.444Z,1009.53
2023-04-02T11:10:39.437Z,1009.52
2023-04-02T11:11:39.457Z,1009.51
2023-04-02T11:12:41.650Z,1009.53
2023-04-02T11:13:39.405Z,1009.57
2023-04-02T11:14:39.399Z,1009.56
2023-04-02T11:15:39.426Z,1009.60
2023-04-02T11:16:44.007Z,1009.61
2023-04-02T11:17:39.412Z,1009.62
2023-04-02T11:18:39.446Z,1009.62
2023-04-02T11:19:39.345Z,1009.63
2023-04-02T11:20:39.335Z,1009.63
2023-04-02T11:21:51.100Z,1009.65
2023-04-02T11:22:39.317Z,1009.65
2023-04-02T11:23:39.300Z,1009.64
2023-04-02T11:24:39.296Z,1009.65
2023-04-02T11:25:39.274Z,1009.67
2023-04-02T11:26:39.278Z,1009.66
2023-04-02T11:27:39.271Z,1009.66
2023-04-02T11:28:39.258Z,1009.67
2023-04-02T11:29:39.234Z,1009.61
2023-04-02T11:30:39.232Z,1009.72
2023-04-02T11:31:39.266Z,1009.72
2023-04-02T11:32:39.519Z,1009.73
2023-04-02T11:33:41.392Z,1009.71
2023-04-02T11:34:39.191Z,1009.66
2023-04-02T11:35:39.542Z,1009.65
2023-04-02T11:36:39.152Z,1009.70
2023-04-02T11:37:39.155Z,1009.74
2023-04-02T11:38:39.140Z,1009.78
2023-04-02T11:39:39.113Z,1009.81
2023-04-02T11:40:39.114Z,1009.83
2023-04-02T11:41:39.092Z,1009.81
2023-04-02T11:42:39.119Z,1009.78
2023-04-02T11:43:39.070Z,1009.81
2023-04-02T11:44:39.084Z,1009.87
2023-04-02T11:45:50.139Z,1009.87
2023-04-02T11:46:39.087Z,1009.94
2023-04-02T11:47:39.059Z,1009.95
2023-04-02T11:48:39.035Z,1009.97
2023-04-02T11:49:39.013Z,1009.96
2023-04-02T11:50:39.022Z,1009.97
2023-04-02T11:51:38.991Z,1009.99
2023-04-02T11:52:39.012Z,1009.97
2023-04-02T11:53:38.968Z,1010.01
2023-04-02T11:54:38.975Z,1009.97
2023-04-02T11:55:39.189Z,1010.02
2023-04-02T11:56:38.943Z,1010.02
2023-04-02T11:57:39.037Z,1010.06
2023-04-02T11:58:38.914Z,1010.05
2023-04-02T11:59:38.910Z,1010.04
2023-04-02T12:00:38.905Z,1010.05
2023-04-02T12:01:38.905Z,1010.09
2023-04-02T12:02:39.012Z,1010.09
2023-04-02T12:03:38.866Z,1010.04
2023-04-02T12:04:38.856Z,1010.08
2023-04-02T12:05:38.856Z,1010.09
2023-04-02T12:06:38.840Z,1010.03
2023-04-02T12:07:38.839Z,1010.10
2023-04-02T12:08:47.462Z,1010.09
2023-04-02T12:09:38.801Z,1010.08
2023-04-02T12:10:38.794Z,1010.12
2023-04-02T12:11:38.773Z,1010.14
2023-04-02T12:12:38.828Z,1010.18
2023-04-02T12:13:38.754Z,1010.16
2023-04-02T12:14:38.751Z,1010.19
2023-04-02T12:15:38.728Z,1010.18
2023-04-02T12:16:38.759Z,1010.21
2023-04-02T12:17:38.778Z,1010.25
2023-04-02T12:18:38.696Z,1010.25
2023-04-02T12:19:38.683Z,1010.26
2023-04-02T12:20:38.690Z,1010.30
2023-04-02T12:21:38.663Z,1010.38
2023-04-02T12:22:38.666Z,1010.36
2023-04-02T12:23:38.643Z,1010.41
2023-04-02T12:24:38.641Z,1010.44
2023-04-02T12:25:38.609Z,1010.44
2023-04-02T12:26:38.637Z,1010.47
2023-04-02T12:27:38.620Z,1010.48
2023-04-02T12:28:38.597Z,1010.46
2023-04-02T12:29:38.580Z,1010.47
2023-04-02T12:30:38.746Z,1010.46
2023-04-02T12:31:38.556Z,1010.53
2023-04-02T12:32:38.578Z,1010.50
2023-04-02T12:33:38.526Z,1010.52
2023-04-02T12:34:38.549Z,1010.52
2023-04-02T12:35:38.513Z,1010.52
2023-04-02T12:36:38.502Z,1010.54
2023-04-02T12:37:38.515Z,1010.53
2023-04-02T12:38:38.482Z,1010.56
2023-04-02T12:39:38.469Z,1010.55
2023-04-02T12:40:38.753Z,1010.59
2023-04-02T12:41:38.446Z,1010.55
2023-04-02T12:42:38.478Z,1010.51
2023-04-02T12:43:38.436Z,1010.52
2023-04-02T12:44:38.428Z,1010.56
2023-04-02T12:45:38.403Z,1010.59
2023-04-02T12:46:38.566Z,1010.57
2023-04-02T12:47:38.475Z,1010.59
2023-04-02T12:48:38.371Z,1010.61
2023-04-02T12:49:38.385Z,1010.65
2023-04-02T12:50:38.564Z,1010.67
2023-04-02T12:51:38.345Z,1010.67
2023-04-02T12:52:38.365Z,1010.66
2023-04-02T12:53:38.367Z,1010.68
2023-04-02T12:54:38.313Z,1010.75
2023-04-02T12:55:38.290Z,1010.77
2023-04-02T12:56:38.298Z,1010.78
2023-04-02T12:57:38.377Z,1010.80
2023-04-02T12:58:38.277Z,1010.80
2023-04-02T12:59:38.282Z,1010.82
2023-04-02T13:00:38.515Z,1010.86
2023-04-02T13:01:38.258Z,1010.83
2023-04-02T13:02:38.320Z,1010.85
2023-04-02T13:03:38.258Z,1010.88
2023-04-02T13:04:38.204Z,1010.86
2023-04-02T13:05:38.198Z,1010.84
2023-04-02T13:06:38.179Z,1010.83
2023-04-02T13:07:38.162Z,1010.86
2023-04-02T13:08:38.232Z,1010.87
2023-04-02T13:09:38.152Z,1010.86
2023-04-02T13:10:38.404Z,1010.92
2023-04-02T13:11:38.140Z,1010.89
2023-04-02T13:12:38.114Z,1010.92
2023-04-02T13:13:38.110Z,1010.93
2023-04-02T13:14:38.108Z,1010.91
2023-04-02T13:15:38.084Z,1010.93
2023-04-02T13:16:38.112Z,1010.92
2023-04-02T13:17:38.055Z,1010.90
2023-04-02T13:18:38.061Z,1010.86
2023-04-02T13:19:38.038Z,1010.90
2023-04-02T13:20:38.273Z,1010.88
2023-04-02T13:21:38.013Z,1010.89
2023-04-02T13:22:38.021Z,1010.91
2023-04-02T13:23:38.041Z,1010.91
2023-04-02T13:24:37.984Z,1010.95
2023-04-02T13:25:37.976Z,1010.97
2023-04-02T13:26:38.012Z,1010.93
2023-04-02T13:27:37.968Z,1010.92
2023-04-02T13:28:37.967Z,1010.92
2023-04-02T13:29:37.935Z,1010.94
2023-04-02T13:30:38.133Z,1010.94
2023-04-02T13:31:37.956Z,1010.94
2023-04-02T13:32:38.000Z,1010.95
2023-04-02T13:33:37.909Z,1010.95
2023-04-02T13:34:37.883Z,1010.96
2023-04-02T13:35:37.904Z,1010.98
2023-04-02T13:36:37.874Z,1010.95
2023-04-02T13:37:37.906Z,1011.01
2023-04-02T13:38:37.898Z,1011.02
2023-04-02T13:39:37.836Z,1011.04
2023-04-02T13:40:38.147Z,1011.07
2023-04-02T13:41:37.809Z,1011.04
2023-04-02T13:42:37.801Z,1011.05
2023-04-02T13:43:37.828Z,1011.03
2023-04-02T13:44:37.780Z,1011.02
2023-04-02T13:45:37.824Z,1011.02
2023-04-02T13:46:37.753Z,1011.06
2023-04-02T13:47:40.534Z,1011.03
2023-04-02T13:48:37.761Z,1011.05
2023-04-02T13:49:37.725Z,1011.05
2023-04-02T13:50:38.121Z,1011.06
2023-04-02T13:51:37.716Z,1011.11
2023-04-02T13:52:37.689Z,1011.06
2023-04-02T13:53:37.695Z,1011.12
2023-04-02T13:54:37.660Z,1011.12
2023-04-02T13:55:37.655Z,1011.15
2023-04-02T13:56:37.640Z,1011.17
2023-04-02T13:57:37.677Z,1011.17
2023-04-02T13:58:37.688Z,1011.18
2023-04-02T13:59:37.624Z,1011.22
2023-04-02T14:00:37.819Z,1011.26
2023-04-02T14:01:37.668Z,1011.25
2023-04-02T14:02:37.618Z,1011.27
2023-04-02T14:03:37.568Z,1011.24
2023-04-02T14:04:37.647Z,1011.24
2023-04-02T14:05:37.803Z,1011.24
2023-04-02T14:06:37.559Z,1011.25
2023-04-02T14:07:37.536Z,1011.26
2023-04-02T14:08:37.566Z,1011.26
2023-04-02T14:09:37.554Z,1011.26
2023-04-02T14:10:37.497Z,1011.26
2023-04-02T14:11:37.484Z,1011.23
2023-04-02T14:12:37.477Z,1011.26
2023-04-02T14:13:37.481Z,1011.29
2023-04-02T14:14:37.494Z,1011.28
2023-04-02T14:15:37.735Z,1011.27
2023-04-02T14:16:37.483Z,1011.28
2023-04-02T14:17:37.490Z,1011.33
2023-04-02T14:18:37.410Z,1011.30
2023-04-02T14:19:37.429Z,1011.30
2023-04-02T14:20:37.405Z,1011.31
2023-04-02T14:21:37.371Z,1011.34
2023-04-02T14:22:37.376Z,1011.33
2023-04-02T14:23:37.395Z,1011.34
2023-04-02T14:24:37.375Z,1011.39
2023-04-02T14:25:37.554Z,1011.40
2023-04-02T14:26:37.350Z,1011.40
2023-04-02T14:27:39.067Z,1011.43
2023-04-02T14:28:37.318Z,1011.40
2023-04-02T14:29:37.311Z,1011.40
2023-04-02T14:30:37.680Z,1011.41
2023-04-02T14:31:37.277Z,1011.42
2023-04-02T14:32:37.316Z,1011.44
2023-04-02T14:33:37.240Z,1011.41
2023-04-02T14:34:37.282Z,1011.45
2023-04-02T14:35:37.267Z,1011.47
2023-04-02T14:36:37.215Z,1011.46
2023-04-02T14:37:37.217Z,1011.49
2023-04-02T14:38:37.203Z,1011.50
2023-04-02T14:39:37.247Z,1011.54
2023-04-02T14:40:37.362Z,1011.54
2023-04-02T14:41:37.170Z,1011.55
2023-04-02T14:42:37.159Z,1011.54
2023-04-02T14:43:37.149Z,1011.52
2023-04-02T14:44:37.189Z,1011.54
2023-04-02T14:45:37.113Z,1011.52
2023-04-02T14:46:37.718Z,1011.52
2023-04-02T14:47:37.157Z,1011.55
2023-04-02T14:48:37.125Z,1011.52
2023-04-02T14:49:37.091Z,1011.50
2023-04-02T14:50:37.316Z,1011.54
2023-04-02T14:51:37.084Z,1011.51
2023-04-02T14:52:37.064Z,1011.52
2023-04-02T14:53:37.073Z,1011.54
2023-04-02T14:54:37.078Z,1011.59
2023-04-02T14:55:37.026Z,1011.59
2023-04-02T14:56:37.015Z,1011.64
2023-04-02T14:57:37.049Z,1011.64
2023-04-02T14:58:37.021Z,1011.67
2023-04-02T14:59:36.991Z,1011.69
2023-04-02T15:00:37.234Z,1011.67
2023-04-02T15:01:37.005Z,1011.68
2023-04-02T15:02:36.963Z,1011.71
2023-04-02T15:03:37.015Z,1011.68
2023-04-02T15:04:36.929Z,1011.70
2023-04-02T15:05:36.901Z,1011.76
2023-04-02T15:06:36.935Z,1011.76
2023-04-02T15:07:36.888Z,1011.73
2023-04-02T15:08:36.913Z,1011.78
2023-04-02T15:09:36.871Z,1011.79
2023-04-02T15:10:37.189Z,1011.81
2023-04-02T15:11:36.859Z,1011.82
2023-04-02T15:12:36.837Z,1011.81
2023-04-02T15:13:36.831Z,1011.78
2023-04-02T15:14:36.844Z,1011.82
2023-04-02T15:15:40.521Z,1011.89
2023-04-02T15:16:36.819Z,1011.85
2023-04-02T15:17:36.821Z,1011.86
2023-04-02T15:18:36.782Z,1011.87
2023-04-02T15:19:36.754Z,1011.89
2023-04-02T15:20:37.015Z,1011.87
2023-04-02T15:21:43.410Z,1011.92
2023-04-02T15:22:36.728Z,1011.90
2023-04-02T15:23:36.719Z,1011.90
2023-04-02T15:24:36.718Z,1011.88
2023-04-02T15:25:36.716Z,1011.90
2023-04-02T15:26:36.687Z,1011.91
2023-04-02T15:27:36.680Z,1011.93
2023-04-02T15:28:36.690Z,1011.94
2023-04-02T15:29:36.674Z,1011.97
2023-04-02T15:30:36.874Z,1011.96
2023-04-02T15:31:36.659Z,1012.00
2023-04-02T15:32:36.664Z,1011.96
2023-04-02T15:33:36.628Z,1011.99
2023-04-02T15:34:36.607Z,1011.99
2023-04-02T15:35:37.042Z,1012.00
2023-04-02T15:36:36.576Z,1012.04
2023-04-02T15:37:36.563Z,1012.04
2023-04-02T15:38:36.582Z,1012.04
2023-04-02T15:39:36.544Z,1012.04
2023-04-02T15:40:36.564Z,1012.05
2023-04-02T15:41:36.538Z,1012.07
2023-04-02T15:42:36.565Z,1012.07
2023-04-02T15:43:36.551Z,1012.08
2023-04-02T15:44:36.505Z,1012.07
2023-04-02T15:45:36.769Z,1012.13
2023-04-02T15:46:36.495Z,1012.10
2023-04-02T15:47:36.871Z,1012.12
2023-04-02T15:48:36.484Z,1012.13
2023-04-02T15:49:36.439Z,1012.14
2023-04-02T15:50:36.621Z,1012.15
2023-04-02T15:51:36.438Z,1012.19
2023-04-02T15:53:05.645Z,1012.20
2023-04-02T15:54:06.645Z,1012.19
2023-04-02T15:55:06.633Z,1012.19
2023-04-02T15:56:06.635Z,1012.16
2023-04-02T15:57:06.645Z,1012.20
2023-04-02T15:58:06.592Z,1012.17
2023-04-02T15:59:06.572Z,1012.19
2023-04-02T16:00:06.591Z,1012.18
2023-04-02T16:01:06.628Z,1012.16
2023-04-02T16:02:06.551Z,1012.17
2023-04-02T16:03:06.806Z,1012.20
2023-04-02T16:04:06.543Z,1012.21
2023-04-02T16:05:06.533Z,1012.20
2023-04-02T16:06:06.556Z,1012.21